sensor_id;sensor_type;location;lat;lon;timestamp;P1;durP1;ratioP1;P2;durP2;ratioP2
68140;SDS011;54941;52.220;104.306;2023-03-02T00:01:36;14.93;;;7.22;;
68140;SDS011;54941;52.220;104.306;2023-03-02T00:04:04;13.88;;;6.20;;
68140;SDS011;54941;52.220;104.306;2023-03-02T00:06:34;15.13;;;6.07;;
68140;SDS011;54941;52.220;104.306;2023-03-02T00:09:02;17.48;;;9.00;;
68140;SDS011;54941;52.220;104.306;2023-03-02T00:11:29;14.45;;;7.60;;
68140;SDS011;54941;52.220;104.306;2023-03-02T00:13:57;12.82;;;5.93;;
68140;SDS011;54941;52.220;104.306;2023-03-02T00:16:23;12.73;;;5.72;;
68140;SDS011;54941;52.220;104.306;2023-03-02T00:18:50;13.27;;;7.07;;
68140;SDS011;54941;52.220;104.306;2023-03-02T00:21:16;14.82;;;7.13;;
68140;SDS011;54941;52.220;104.306;2023-03-02T00:23:44;18.33;;;7.15;;
68140;SDS011;54941;52.220;104.306;2023-03-02T00:26:11;16.90;;;8.68;;
68140;SDS011;54941;52.220;104.306;2023-03-02T00:28:37;16.38;;;8.00;;
68140;SDS011;54941;52.220;104.306;2023-03-02T00:31:04;21.83;;;8.30;;
68140;SDS011;54941;52.220;104.306;2023-03-02T00:33:31;16.33;;;7.57;;
68140;SDS011;54941;52.220;104.306;2023-03-02T00:35:57;13.93;;;6.95;;
68140;SDS011;54941;52.220;104.306;2023-03-02T00:38:24;18.63;;;7.55;;
68140;SDS011;54941;52.220;104.306;2023-03-02T00:40:52;17.90;;;8.73;;
68140;SDS011;54941;52.220;104.306;2023-03-02T00:43:19;17.00;;;8.50;;
68140;SDS011;54941;52.220;104.306;2023-03-02T00:45:45;12.52;;;7.05;;
68140;SDS011;54941;52.220;104.306;2023-03-02T00:48:12;13.30;;;7.05;;
68140;SDS011;54941;52.220;104.306;2023-03-02T00:50:38;14.45;;;6.60;;
68140;SDS011;54941;52.220;104.306;2023-03-02T00:53:04;14.43;;;7.03;;
68140;SDS011;54941;52.220;104.306;2023-03-02T00:55:31;15.23;;;7.68;;
68140;SDS011;54941;52.220;104.306;2023-03-02T00:57:59;14.35;;;7.88;;
68140;SDS011;54941;52.220;104.306;2023-03-02T01:00:25;18.85;;;7.75;;
68140;SDS011;54941;52.220;104.306;2023-03-02T01:02:52;13.65;;;7.32;;
68140;SDS011;54941;52.220;104.306;2023-03-02T01:05:19;14.85;;;7.60;;
68140;SDS011;54941;52.220;104.306;2023-03-02T01:07:45;16.55;;;7.82;;
68140;SDS011;54941;52.220;104.306;2023-03-02T01:10:12;12.35;;;7.38;;
68140;SDS011;54941;52.220;104.306;2023-03-02T01:12:39;15.07;;;9.02;;
68140;SDS011;54941;52.220;104.306;2023-03-02T01:15:17;17.67;;;8.65;;
68140;SDS011;54941;52.220;104.306;2023-03-02T01:17:43;20.38;;;9.77;;
68140;SDS011;54941;52.220;104.306;2023-03-02T01:20:10;26.42;;;14.52;;
68140;SDS011;54941;52.220;104.306;2023-03-02T01:22:38;27.15;;;12.23;;
68140;SDS011;54941;52.220;104.306;2023-03-02T01:25:06;30.17;;;14.55;;
68140;SDS011;54941;52.220;104.306;2023-03-02T01:27:32;24.00;;;11.40;;
68140;SDS011;54941;52.220;104.306;2023-03-02T01:29:59;18.00;;;9.02;;
68140;SDS011;54941;52.220;104.306;2023-03-02T01:32:27;18.05;;;10.05;;
68140;SDS011;54941;52.220;104.306;2023-03-02T01:34:53;22.90;;;11.75;;
68140;SDS011;54941;52.220;104.306;2023-03-02T01:37:20;25.55;;;13.05;;
68140;SDS011;54941;52.220;104.306;2023-03-02T01:39:48;22.40;;;11.63;;
68140;SDS011;54941;52.220;104.306;2023-03-02T01:42:14;19.33;;;10.38;;
68140;SDS011;54941;52.220;104.306;2023-03-02T01:44:42;19.52;;;8.93;;
68140;SDS011;54941;52.220;104.306;2023-03-02T01:47:10;17.92;;;9.48;;
68140;SDS011;54941;52.220;104.306;2023-03-02T01:49:43;18.88;;;8.88;;
68140;SDS011;54941;52.220;104.306;2023-03-02T01:52:12;17.63;;;8.85;;
68140;SDS011;54941;52.220;104.306;2023-03-02T01:54:40;15.23;;;9.02;;
68140;SDS011;54941;52.220;104.306;2023-03-02T01:57:08;15.90;;;8.80;;
68140;SDS011;54941;52.220;104.306;2023-03-02T01:59:36;17.25;;;7.85;;
68140;SDS011;54941;52.220;104.306;2023-03-02T02:02:06;13.77;;;7.55;;
68140;SDS011;54941;52.220;104.306;2023-03-02T02:04:35;21.30;;;10.32;;
68140;SDS011;54941;52.220;104.306;2023-03-02T02:07:06;12.38;;;7.40;;
68140;SDS011;54941;52.220;104.306;2023-03-02T02:09:35;13.40;;;7.25;;
68140;SDS011;54941;52.220;104.306;2023-03-02T02:12:04;17.40;;;8.30;;
68140;SDS011;54941;52.220;104.306;2023-03-02T02:14:31;13.40;;;7.57;;
68140;SDS011;54941;52.220;104.306;2023-03-02T02:16:58;12.13;;;6.20;;
68140;SDS011;54941;52.220;104.306;2023-03-02T02:19:29;14.82;;;7.90;;
68140;SDS011;54941;52.220;104.306;2023-03-02T02:22:02;11.70;;;7.07;;
68140;SDS011;54941;52.220;104.306;2023-03-02T02:24:31;14.15;;;7.50;;
68140;SDS011;54941;52.220;104.306;2023-03-02T02:27:04;13.52;;;8.02;;
68140;SDS011;54941;52.220;104.306;2023-03-02T02:29:31;15.75;;;9.80;;
68140;SDS011;54941;52.220;104.306;2023-03-02T02:32:02;15.75;;;9.57;;
68140;SDS011;54941;52.220;104.306;2023-03-02T02:34:36;12.65;;;7.00;;
68140;SDS011;54941;52.220;104.306;2023-03-02T02:37:06;12.38;;;7.28;;
68140;SDS011;54941;52.220;104.306;2023-03-02T02:39:38;13.30;;;7.43;;
68140;SDS011;54941;52.220;104.306;2023-03-02T02:42:11;11.48;;;6.68;;
68140;SDS011;54941;52.220;104.306;2023-03-02T02:44:40;13.43;;;7.80;;
68140;SDS011;54941;52.220;104.306;2023-03-02T02:47:09;16.25;;;8.20;;
68140;SDS011;54941;52.220;104.306;2023-03-02T02:49:41;16.25;;;8.55;;
68140;SDS011;54941;52.220;104.306;2023-03-02T02:52:10;17.88;;;7.60;;
68140;SDS011;54941;52.220;104.306;2023-03-02T02:54:39;17.77;;;8.73;;
68140;SDS011;54941;52.220;104.306;2023-03-02T02:57:10;16.80;;;9.65;;
68140;SDS011;54941;52.220;104.306;2023-03-02T02:59:40;13.73;;;8.32;;
68140;SDS011;54941;52.220;104.306;2023-03-02T03:02:10;18.02;;;8.05;;
68140;SDS011;54941;52.220;104.306;2023-03-02T03:04:42;17.42;;;8.95;;
68140;SDS011;54941;52.220;104.306;2023-03-02T03:07:09;16.95;;;8.15;;
68140;SDS011;54941;52.220;104.306;2023-03-02T03:09:40;15.05;;;9.05;;
68140;SDS011;54941;52.220;104.306;2023-03-02T03:12:09;12.65;;;7.90;;
68140;SDS011;54941;52.220;104.306;2023-03-02T03:14:40;12.82;;;7.68;;
68140;SDS011;54941;52.220;104.306;2023-03-02T03:17:07;15.82;;;8.43;;
68140;SDS011;54941;52.220;104.306;2023-03-02T03:19:34;11.00;;;7.55;;
68140;SDS011;54941;52.220;104.306;2023-03-02T03:22:00;10.60;;;7.55;;
68140;SDS011;54941;52.220;104.306;2023-03-02T03:24:27;12.90;;;8.00;;
68140;SDS011;54941;52.220;104.306;2023-03-02T03:26:56;13.85;;;7.53;;
68140;SDS011;54941;52.220;104.306;2023-03-02T03:29:25;15.20;;;8.18;;
68140;SDS011;54941;52.220;104.306;2023-03-02T03:31:53;11.70;;;6.38;;
68140;SDS011;54941;52.220;104.306;2023-03-02T03:34:21;16.02;;;8.63;;
68140;SDS011;54941;52.220;104.306;2023-03-02T03:36:48;14.93;;;8.52;;
68140;SDS011;54941;52.220;104.306;2023-03-02T03:39:15;11.77;;;7.53;;
68140;SDS011;54941;52.220;104.306;2023-03-02T03:41:41;13.32;;;7.78;;
68140;SDS011;54941;52.220;104.306;2023-03-02T03:44:08;19.35;;;8.10;;
68140;SDS011;54941;52.220;104.306;2023-03-02T03:46:36;9.70;;;6.90;;
68140;SDS011;54941;52.220;104.306;2023-03-02T03:49:03;11.38;;;6.55;;
68140;SDS011;54941;52.220;104.306;2023-03-02T03:51:30;12.15;;;7.45;;
68140;SDS011;54941;52.220;104.306;2023-03-02T03:53:56;14.75;;;7.72;;
68140;SDS011;54941;52.220;104.306;2023-03-02T03:56:23;12.05;;;7.03;;
68140;SDS011;54941;52.220;104.306;2023-03-02T03:58:49;11.95;;;6.63;;
68140;SDS011;54941;52.220;104.306;2023-03-02T04:01:15;11.18;;;6.55;;
68140;SDS011;54941;52.220;104.306;2023-03-02T04:03:43;12.20;;;6.07;;
68140;SDS011;54941;52.220;104.306;2023-03-02T04:06:10;13.32;;;6.32;;
68140;SDS011;54941;52.220;104.306;2023-03-02T04:08:36;13.27;;;6.35;;
68140;SDS011;54941;52.220;104.306;2023-03-02T04:11:02;10.48;;;5.50;;
68140;SDS011;54941;52.220;104.306;2023-03-02T04:13:29;9.65;;;5.53;;
68140;SDS011;54941;52.220;104.306;2023-03-02T04:15:55;8.30;;;5.18;;
68140;SDS011;54941;52.220;104.306;2023-03-02T04:18:22;9.90;;;5.57;;
68140;SDS011;54941;52.220;104.306;2023-03-02T04:20:50;10.73;;;6.05;;
68140;SDS011;54941;52.220;104.306;2023-03-02T04:23:16;8.60;;;5.80;;
68140;SDS011;54941;52.220;104.306;2023-03-02T04:25:42;11.55;;;6.80;;
68140;SDS011;54941;52.220;104.306;2023-03-02T04:28:09;17.67;;;9.60;;
68140;SDS011;54941;52.220;104.306;2023-03-02T04:30:35;15.82;;;9.32;;
68140;SDS011;54941;52.220;104.306;2023-03-02T04:33:01;20.15;;;9.80;;
68140;SDS011;54941;52.220;104.306;2023-03-02T04:35:28;15.70;;;8.10;;
68140;SDS011;54941;52.220;104.306;2023-03-02T04:37:56;14.80;;;7.63;;
68140;SDS011;54941;52.220;104.306;2023-03-02T04:40:22;16.52;;;8.30;;
68140;SDS011;54941;52.220;104.306;2023-03-02T04:42:49;22.02;;;10.90;;
68140;SDS011;54941;52.220;104.306;2023-03-02T04:45:15;19.15;;;8.70;;
68140;SDS011;54941;52.220;104.306;2023-03-02T04:47:41;18.30;;;7.07;;
68140;SDS011;54941;52.220;104.306;2023-03-02T04:50:08;15.95;;;7.03;;
68140;SDS011;54941;52.220;104.306;2023-03-02T04:52:38;17.65;;;7.30;;
68140;SDS011;54941;52.220;104.306;2023-03-02T04:55:06;11.30;;;6.50;;
68140;SDS011;54941;52.220;104.306;2023-03-02T04:57:33;11.63;;;5.78;;
68140;SDS011;54941;52.220;104.306;2023-03-02T05:00:00;15.55;;;6.90;;
68140;SDS011;54941;52.220;104.306;2023-03-02T05:02:26;17.10;;;7.50;;
68140;SDS011;54941;52.220;104.306;2023-03-02T05:04:53;13.50;;;7.20;;
68140;SDS011;54941;52.220;104.306;2023-03-02T05:07:19;12.18;;;6.32;;
68140;SDS011;54941;52.220;104.306;2023-03-02T05:09:45;13.57;;;7.32;;
68140;SDS011;54941;52.220;104.306;2023-03-02T05:12:13;13.45;;;6.88;;
68140;SDS011;54941;52.220;104.306;2023-03-02T05:14:40;13.52;;;6.63;;
68140;SDS011;54941;52.220;104.306;2023-03-02T05:17:06;14.77;;;6.75;;
68140;SDS011;54941;52.220;104.306;2023-03-02T05:19:32;12.25;;;6.90;;
68140;SDS011;54941;52.220;104.306;2023-03-02T05:21:59;12.80;;;6.90;;
68140;SDS011;54941;52.220;104.306;2023-03-02T05:24:25;14.75;;;7.18;;
68140;SDS011;54941;52.220;104.306;2023-03-02T05:26:52;15.50;;;7.88;;
68140;SDS011;54941;52.220;104.306;2023-03-02T05:29:20;14.57;;;8.63;;
68140;SDS011;54941;52.220;104.306;2023-03-02T05:31:46;15.85;;;9.18;;
68140;SDS011;54941;52.220;104.306;2023-03-02T05:34:14;20.17;;;11.88;;
68140;SDS011;54941;52.220;104.306;2023-03-02T05:36:41;21.17;;;10.70;;
68140;SDS011;54941;52.220;104.306;2023-03-02T05:39:08;16.38;;;8.82;;
68140;SDS011;54941;52.220;104.306;2023-03-02T05:41:35;14.48;;;9.45;;
68140;SDS011;54941;52.220;104.306;2023-03-02T05:44:02;14.30;;;7.35;;
68140;SDS011;54941;52.220;104.306;2023-03-02T05:46:30;12.40;;;7.47;;
68140;SDS011;54941;52.220;104.306;2023-03-02T05:48:57;14.52;;;7.28;;
68140;SDS011;54941;52.220;104.306;2023-03-02T05:51:23;14.02;;;8.00;;
68140;SDS011;54941;52.220;104.306;2023-03-02T05:53:50;14.73;;;7.45;;
68140;SDS011;54941;52.220;104.306;2023-03-02T05:56:16;13.07;;;6.75;;
68140;SDS011;54941;52.220;104.306;2023-03-02T05:58:42;16.08;;;8.45;;
68140;SDS011;54941;52.220;104.306;2023-03-02T06:01:09;18.42;;;9.48;;
68140;SDS011;54941;52.220;104.306;2023-03-02T06:03:37;22.40;;;10.48;;
68140;SDS011;54941;52.220;104.306;2023-03-02T06:06:04;23.67;;;12.20;;
68140;SDS011;54941;52.220;104.306;2023-03-02T06:08:31;16.77;;;8.65;;
68140;SDS011;54941;52.220;104.306;2023-03-02T06:10:57;14.98;;;7.20;;
68140;SDS011;54941;52.220;104.306;2023-03-02T06:13:24;16.85;;;7.72;;
68140;SDS011;54941;52.220;104.306;2023-03-02T06:15:50;14.90;;;6.93;;
68140;SDS011;54941;52.220;104.306;2023-03-02T06:18:16;13.70;;;6.32;;
68140;SDS011;54941;52.220;104.306;2023-03-02T06:20:44;10.43;;;4.85;;
68140;SDS011;54941;52.220;104.306;2023-03-02T06:23:11;11.55;;;5.68;;
68140;SDS011;54941;52.220;104.306;2023-03-02T06:25:38;10.15;;;4.97;;
68140;SDS011;54941;52.220;104.306;2023-03-02T06:28:04;8.77;;;5.05;;
68140;SDS011;54941;52.220;104.306;2023-03-02T06:30:30;12.00;;;6.75;;
68140;SDS011;54941;52.220;104.306;2023-03-02T06:32:57;13.55;;;5.13;;
68140;SDS011;54941;52.220;104.306;2023-03-02T06:35:23;11.90;;;5.40;;
68140;SDS011;54941;52.220;104.306;2023-03-02T06:37:51;11.48;;;5.75;;
68140;SDS011;54941;52.220;104.306;2023-03-02T06:40:18;15.73;;;7.57;;
68140;SDS011;54941;52.220;104.306;2023-03-02T06:42:44;18.40;;;10.07;;
68140;SDS011;54941;52.220;104.306;2023-03-02T06:45:11;13.68;;;7.28;;
68140;SDS011;54941;52.220;104.306;2023-03-02T06:47:37;15.00;;;6.85;;
68140;SDS011;54941;52.220;104.306;2023-03-02T06:50:04;10.63;;;6.28;;
68140;SDS011;54941;52.220;104.306;2023-03-02T06:52:31;10.02;;;5.63;;
68140;SDS011;54941;52.220;104.306;2023-03-02T06:54:59;9.35;;;4.40;;
68140;SDS011;54941;52.220;104.306;2023-03-02T06:57:25;9.43;;;4.55;;
68140;SDS011;54941;52.220;104.306;2023-03-02T06:59:52;8.75;;;4.38;;
68140;SDS011;54941;52.220;104.306;2023-03-02T07:02:18;8.95;;;4.32;;
68140;SDS011;54941;52.220;104.306;2023-03-02T07:04:44;10.82;;;3.50;;
68140;SDS011;54941;52.220;104.306;2023-03-02T07:07:11;8.75;;;3.80;;
68140;SDS011;54941;52.220;104.306;2023-03-02T07:09:37;8.20;;;3.55;;
68140;SDS011;54941;52.220;104.306;2023-03-02T07:12:05;11.43;;;4.18;;
68140;SDS011;54941;52.220;104.306;2023-03-02T07:14:33;8.15;;;4.53;;
68140;SDS011;54941;52.220;104.306;2023-03-02T07:17:00;7.55;;;2.50;;
68140;SDS011;54941;52.220;104.306;2023-03-02T07:19:29;8.30;;;2.30;;
68140;SDS011;54941;52.220;104.306;2023-03-02T07:21:55;6.65;;;2.65;;
68140;SDS011;54941;52.220;104.306;2023-03-02T07:24:21;6.95;;;3.05;;
68140;SDS011;54941;52.220;104.306;2023-03-02T07:26:48;7.90;;;2.53;;
68140;SDS011;54941;52.220;104.306;2023-03-02T07:29:16;6.25;;;1.80;;
68140;SDS011;54941;52.220;104.306;2023-03-02T07:31:43;6.22;;;1.83;;
68140;SDS011;54941;52.220;104.306;2023-03-02T07:34:09;8.07;;;2.08;;
68140;SDS011;54941;52.220;104.306;2023-03-02T07:36:36;10.25;;;2.45;;
68140;SDS011;54941;52.220;104.306;2023-03-02T07:39:02;6.22;;;2.60;;
68140;SDS011;54941;52.220;104.306;2023-03-02T07:41:29;6.30;;;2.67;;
68140;SDS011;54941;52.220;104.306;2023-03-02T07:43:55;6.35;;;1.88;;
68140;SDS011;54941;52.220;104.306;2023-03-02T07:46:23;7.47;;;2.30;;
68140;SDS011;54941;52.220;104.306;2023-03-02T07:48:49;10.10;;;2.50;;
68140;SDS011;54941;52.220;104.306;2023-03-02T07:51:16;7.80;;;2.50;;
68140;SDS011;54941;52.220;104.306;2023-03-02T07:53:42;7.75;;;2.75;;
68140;SDS011;54941;52.220;104.306;2023-03-02T07:56:09;8.73;;;2.35;;
68140;SDS011;54941;52.220;104.306;2023-03-02T07:58:36;10.27;;;3.25;;
68140;SDS011;54941;52.220;104.306;2023-03-02T08:01:02;8.50;;;2.50;;
68140;SDS011;54941;52.220;104.306;2023-03-02T08:03:31;13.55;;;6.00;;
68140;SDS011;54941;52.220;104.306;2023-03-02T08:05:57;12.13;;;3.47;;
68140;SDS011;54941;52.220;104.306;2023-03-02T08:08:24;9.13;;;3.20;;
68140;SDS011;54941;52.220;104.306;2023-03-02T08:10:50;8.80;;;2.72;;
68140;SDS011;54941;52.220;104.306;2023-03-02T08:13:16;13.40;;;3.00;;
68140;SDS011;54941;52.220;104.306;2023-03-02T08:15:43;7.70;;;2.58;;
68140;SDS011;54941;52.220;104.306;2023-03-02T08:18:09;11.07;;;3.10;;
68140;SDS011;54941;52.220;104.306;2023-03-02T08:20:37;5.28;;;2.17;;
68140;SDS011;54941;52.220;104.306;2023-03-02T08:23:04;11.23;;;3.10;;
68140;SDS011;54941;52.220;104.306;2023-03-02T08:25:30;8.95;;;3.05;;
68140;SDS011;54941;52.220;104.306;2023-03-02T08:27:57;9.15;;;2.58;;
68140;SDS011;54941;52.220;104.306;2023-03-02T08:30:25;6.97;;;2.60;;
68140;SDS011;54941;52.220;104.306;2023-03-02T08:32:51;11.65;;;2.88;;
68140;SDS011;54941;52.220;104.306;2023-03-02T08:35:18;11.57;;;3.28;;
68140;SDS011;54941;52.220;104.306;2023-03-02T08:37:45;11.40;;;2.63;;
68140;SDS011;54941;52.220;104.306;2023-03-02T08:40:12;7.95;;;2.90;;
68140;SDS011;54941;52.220;104.306;2023-03-02T08:42:39;8.40;;;2.75;;
68140;SDS011;54941;52.220;104.306;2023-03-02T08:45:06;11.35;;;2.63;;
68140;SDS011;54941;52.220;104.306;2023-03-02T08:47:33;8.95;;;2.95;;
68140;SDS011;54941;52.220;104.306;2023-03-02T08:49:59;11.30;;;3.97;;
68140;SDS011;54941;52.220;104.306;2023-03-02T08:52:26;8.80;;;2.92;;
68140;SDS011;54941;52.220;104.306;2023-03-02T08:54:53;8.55;;;3.10;;
68140;SDS011;54941;52.220;104.306;2023-03-02T08:57:20;9.40;;;2.95;;
68140;SDS011;54941;52.220;104.306;2023-03-02T08:59:47;10.77;;;3.17;;
68140;SDS011;54941;52.220;104.306;2023-03-02T09:02:13;8.27;;;2.92;;
68140;SDS011;54941;52.220;104.306;2023-03-02T09:04:39;7.35;;;2.80;;
68140;SDS011;54941;52.220;104.306;2023-03-02T09:07:06;11.52;;;3.42;;
68140;SDS011;54941;52.220;104.306;2023-03-02T09:09:32;7.60;;;3.60;;
68140;SDS011;54941;52.220;104.306;2023-03-02T09:12:00;7.60;;;2.75;;
68140;SDS011;54941;52.220;104.306;2023-03-02T09:14:27;5.60;;;2.50;;
68140;SDS011;54941;52.220;104.306;2023-03-02T09:16:53;7.63;;;2.30;;
68140;SDS011;54941;52.220;104.306;2023-03-02T09:19:19;9.18;;;2.67;;
68140;SDS011;54941;52.220;104.306;2023-03-02T09:21:46;7.47;;;2.88;;
68140;SDS011;54941;52.220;104.306;2023-03-02T09:24:12;10.70;;;3.47;;
68140;SDS011;54941;52.220;104.306;2023-03-02T09:26:39;13.52;;;4.35;;
68140;SDS011;54941;52.220;104.306;2023-03-02T09:29:06;11.48;;;3.65;;
68140;SDS011;54941;52.220;104.306;2023-03-02T09:31:33;12.38;;;4.95;;
68140;SDS011;54941;52.220;104.306;2023-03-02T09:34:00;8.75;;;4.32;;
68140;SDS011;54941;52.220;104.306;2023-03-02T09:36:26;10.18;;;4.05;;
68140;SDS011;54941;52.220;104.306;2023-03-02T09:38:53;7.07;;;2.50;;
68140;SDS011;54941;52.220;104.306;2023-03-02T09:41:52;7.80;;;2.70;;
68140;SDS011;54941;52.220;104.306;2023-03-02T09:44:41;7.32;;;3.33;;
68140;SDS011;54941;52.220;104.306;2023-03-02T09:47:23;8.45;;;2.65;;
68140;SDS011;54941;52.220;104.306;2023-03-02T09:49:59;9.73;;;3.08;;
68140;SDS011;54941;52.220;104.306;2023-03-02T09:52:35;8.30;;;3.38;;
68140;SDS011;54941;52.220;104.306;2023-03-02T09:55:11;10.63;;;3.15;;
68140;SDS011;54941;52.220;104.306;2023-03-02T10:00:11;8.85;;;2.60;;
68140;SDS011;54941;52.220;104.306;2023-03-02T10:02:43;8.05;;;2.35;;
68140;SDS011;54941;52.220;104.306;2023-03-02T10:05:15;7.75;;;3.05;;
68140;SDS011;54941;52.220;104.306;2023-03-02T10:07:45;9.07;;;1.90;;
68140;SDS011;54941;52.220;104.306;2023-03-02T10:10:18;6.85;;;2.72;;
68140;SDS011;54941;52.220;104.306;2023-03-02T10:12:55;8.30;;;2.63;;
68140;SDS011;54941;52.220;104.306;2023-03-02T10:15:37;7.80;;;2.90;;
68140;SDS011;54941;52.220;104.306;2023-03-02T10:18:14;7.03;;;2.78;;
68140;SDS011;54941;52.220;104.306;2023-03-02T10:20:46;6.47;;;2.15;;
68140;SDS011;54941;52.220;104.306;2023-03-02T10:23:23;10.45;;;2.60;;
68140;SDS011;54941;52.220;104.306;2023-03-02T10:25:56;11.02;;;2.40;;
68140;SDS011;54941;52.220;104.306;2023-03-02T10:28:28;7.68;;;3.30;;
68140;SDS011;54941;52.220;104.306;2023-03-02T10:31:06;8.05;;;3.22;;
68140;SDS011;54941;52.220;104.306;2023-03-02T10:33:35;9.98;;;2.88;;
68140;SDS011;54941;52.220;104.306;2023-03-02T10:38:30;10.98;;;4.47;;
68140;SDS011;54941;52.220;104.306;2023-03-02T10:40:58;11.15;;;4.30;;
68140;SDS011;54941;52.220;104.306;2023-03-02T10:43:29;12.40;;;4.55;;
68140;SDS011;54941;52.220;104.306;2023-03-02T10:45:59;13.32;;;6.85;;
68140;SDS011;54941;52.220;104.306;2023-03-02T10:48:28;10.85;;;3.72;;
68140;SDS011;54941;52.220;104.306;2023-03-02T10:50:55;9.38;;;3.60;;
68140;SDS011;54941;52.220;104.306;2023-03-02T10:53:23;11.98;;;3.17;;
68140;SDS011;54941;52.220;104.306;2023-03-02T10:55:50;12.40;;;4.22;;
68140;SDS011;54941;52.220;104.306;2023-03-02T10:58:21;10.88;;;3.72;;
68140;SDS011;54941;52.220;104.306;2023-03-02T11:00:57;9.82;;;4.63;;
68140;SDS011;54941;52.220;104.306;2023-03-02T11:03:24;12.70;;;4.47;;
68140;SDS011;54941;52.220;104.306;2023-03-02T11:05:53;10.13;;;4.00;;
68140;SDS011;54941;52.220;104.306;2023-03-02T11:08:21;12.73;;;4.53;;
68140;SDS011;54941;52.220;104.306;2023-03-02T11:10:52;10.30;;;4.32;;
68140;SDS011;54941;52.220;104.306;2023-03-02T11:13:22;11.57;;;4.18;;
68140;SDS011;54941;52.220;104.306;2023-03-02T11:15:51;9.88;;;4.25;;
68140;SDS011;54941;52.220;104.306;2023-03-02T11:18:22;11.63;;;4.80;;
68140;SDS011;54941;52.220;104.306;2023-03-02T11:20:51;10.35;;;4.57;;
68140;SDS011;54941;52.220;104.306;2023-03-02T11:23:26;9.82;;;4.03;;
68140;SDS011;54941;52.220;104.306;2023-03-02T11:25:58;15.15;;;5.35;;
68140;SDS011;54941;52.220;104.306;2023-03-02T11:28:34;15.63;;;5.00;;
68140;SDS011;54941;52.220;104.306;2023-03-02T11:31:09;12.95;;;6.13;;
68140;SDS011;54941;52.220;104.306;2023-03-02T11:33:42;14.90;;;5.32;;
68140;SDS011;54941;52.220;104.306;2023-03-02T11:36:34;25.45;;;12.63;;
68140;SDS011;54941;52.220;104.306;2023-03-02T11:39:07;14.20;;;6.43;;
68140;SDS011;54941;52.220;104.306;2023-03-02T11:41:40;14.70;;;6.13;;
68140;SDS011;54941;52.220;104.306;2023-03-02T11:44:11;13.75;;;4.68;;
68140;SDS011;54941;52.220;104.306;2023-03-02T11:46:40;14.07;;;5.63;;
68140;SDS011;54941;52.220;104.306;2023-03-02T11:49:12;20.90;;;9.13;;
68140;SDS011;54941;52.220;104.306;2023-03-02T11:51:45;19.73;;;7.75;;
68140;SDS011;54941;52.220;104.306;2023-03-02T11:54:21;17.75;;;7.50;;
68140;SDS011;54941;52.220;104.306;2023-03-02T11:56:56;22.30;;;10.32;;
68140;SDS011;54941;52.220;104.306;2023-03-02T11:59:24;20.80;;;8.60;;
68140;SDS011;54941;52.220;104.306;2023-03-02T12:01:52;20.15;;;8.63;;
68140;SDS011;54941;52.220;104.306;2023-03-02T12:04:25;16.83;;;8.10;;
68140;SDS011;54941;52.220;104.306;2023-03-02T12:06:54;19.83;;;8.55;;
68140;SDS011;54941;52.220;104.306;2023-03-02T12:09:25;15.85;;;7.18;;
68140;SDS011;54941;52.220;104.306;2023-03-02T12:11:57;16.15;;;7.90;;
68140;SDS011;54941;52.220;104.306;2023-03-02T12:14:26;14.77;;;6.45;;
68140;SDS011;54941;52.220;104.306;2023-03-02T12:17:17;14.75;;;6.65;;
68140;SDS011;54941;52.220;104.306;2023-03-02T12:19:45;15.38;;;6.10;;
68140;SDS011;54941;52.220;104.306;2023-03-02T12:22:24;12.40;;;5.90;;
68140;SDS011;54941;52.220;104.306;2023-03-02T12:24:57;14.88;;;6.85;;
68140;SDS011;54941;52.220;104.306;2023-03-02T12:27:32;18.92;;;8.82;;
68140;SDS011;54941;52.220;104.306;2023-03-02T12:30:08;12.85;;;5.90;;
68140;SDS011;54941;52.220;104.306;2023-03-02T12:32:45;13.93;;;5.97;;
68140;SDS011;54941;52.220;104.306;2023-03-02T12:35:25;16.48;;;6.82;;
68140;SDS011;54941;52.220;104.306;2023-03-02T12:37:56;21.90;;;8.45;;
68140;SDS011;54941;52.220;104.306;2023-03-02T12:40:30;14.70;;;6.40;;
68140;SDS011;54941;52.220;104.306;2023-03-02T12:43:13;15.65;;;7.15;;
68140;SDS011;54941;52.220;104.306;2023-03-02T12:48:56;9.63;;;5.15;;
68140;SDS011;54941;52.220;104.306;2023-03-02T12:51:26;10.82;;;5.15;;
68140;SDS011;54941;52.220;104.306;2023-03-02T12:54:02;10.88;;;4.03;;
68140;SDS011;54941;52.220;104.306;2023-03-02T12:56:31;9.98;;;4.25;;
68140;SDS011;54941;52.220;104.306;2023-03-02T12:58:57;17.15;;;6.72;;
68140;SDS011;54941;52.220;104.306;2023-03-02T13:01:25;12.38;;;5.07;;
68140;SDS011;54941;52.220;104.306;2023-03-02T13:03:53;14.77;;;6.72;;
68140;SDS011;54941;52.220;104.306;2023-03-02T13:06:20;10.45;;;4.75;;
68140;SDS011;54941;52.220;104.306;2023-03-02T13:08:50;12.35;;;5.18;;
68140;SDS011;54941;52.220;104.306;2023-03-02T13:11:21;7.90;;;3.47;;
68140;SDS011;54941;52.220;104.306;2023-03-02T13:13:51;11.10;;;4.43;;
68140;SDS011;54941;52.220;104.306;2023-03-02T13:16:19;11.95;;;4.82;;
68140;SDS011;54941;52.220;104.306;2023-03-02T13:18:47;9.93;;;4.90;;
68140;SDS011;54941;52.220;104.306;2023-03-02T13:21:15;14.95;;;5.35;;
68140;SDS011;54941;52.220;104.306;2023-03-02T13:23:45;11.80;;;5.30;;
68140;SDS011;54941;52.220;104.306;2023-03-02T13:26:22;14.70;;;6.57;;
68140;SDS011;54941;52.220;104.306;2023-03-02T13:28:59;18.73;;;8.40;;
68140;SDS011;54941;52.220;104.306;2023-03-02T13:31:26;19.75;;;8.93;;
68140;SDS011;54941;52.220;104.306;2023-03-02T13:33:52;17.67;;;8.32;;
68140;SDS011;54941;52.220;104.306;2023-03-02T13:36:21;17.95;;;7.93;;
68140;SDS011;54941;52.220;104.306;2023-03-02T13:38:50;15.70;;;5.72;;
68140;SDS011;54941;52.220;104.306;2023-03-02T13:41:23;17.27;;;7.60;;
68140;SDS011;54941;52.220;104.306;2023-03-02T13:43:52;16.65;;;6.60;;
68140;SDS011;54941;52.220;104.306;2023-03-02T13:46:31;13.95;;;7.38;;
68140;SDS011;54941;52.220;104.306;2023-03-02T13:48:59;13.10;;;7.13;;
68140;SDS011;54941;52.220;104.306;2023-03-02T13:51:28;15.32;;;7.57;;
68140;SDS011;54941;52.220;104.306;2023-03-02T13:53:57;15.98;;;8.20;;
68140;SDS011;54941;52.220;104.306;2023-03-02T13:56:29;18.85;;;9.98;;
68140;SDS011;54941;52.220;104.306;2023-03-02T13:58:57;16.10;;;8.65;;
68140;SDS011;54941;52.220;104.306;2023-03-02T14:01:24;18.75;;;9.18;;
68140;SDS011;54941;52.220;104.306;2023-03-02T14:03:51;21.65;;;10.98;;
68140;SDS011;54941;52.220;104.306;2023-03-02T14:06:18;19.15;;;7.70;;
68140;SDS011;54941;52.220;104.306;2023-03-02T14:08:44;17.27;;;7.65;;
68140;SDS011;54941;52.220;104.306;2023-03-02T14:11:11;9.25;;;5.85;;
68140;SDS011;54941;52.220;104.306;2023-03-02T14:13:41;14.95;;;6.10;;
68140;SDS011;54941;52.220;104.306;2023-03-02T14:16:10;11.82;;;5.72;;
68140;SDS011;54941;52.220;104.306;2023-03-02T14:18:38;13.32;;;6.65;;
68140;SDS011;54941;52.220;104.306;2023-03-02T14:21:08;15.18;;;7.80;;
68140;SDS011;54941;52.220;104.306;2023-03-02T14:23:37;13.27;;;7.53;;
68140;SDS011;54941;52.220;104.306;2023-03-02T14:26:20;11.68;;;5.75;;
68140;SDS011;54941;52.220;104.306;2023-03-02T14:28:56;13.02;;;5.40;;